createdAt,value
2018-11-02T00:00:24.853Z,12.98
2018-11-02T00:00:58.055Z,12.18
2018-11-02T00:01:31.345Z,11.63
2018-11-02T00:02:05.143Z,11.07
2018-11-02T00:02:38.184Z,10.88
2018-11-02T00:03:11.988Z,10.90
2018-11-02T00:03:45.040Z,12.10
2018-11-02T00:04:18.835Z,12.20
2018-11-02T00:04:52.638Z,13.55
2018-11-02T00:05:25.689Z,12.37
2018-11-02T00:05:58.794Z,11.98
2018-11-02T00:06:31.794Z,11.20
2018-11-02T00:07:04.850Z,10.32
2018-11-02T00:07:38.548Z,10.40
2018-11-02T00:08:11.600Z,11.90
2018-11-02T00:08:45.628Z,11.23
2018-11-02T00:09:18.666Z,12.13
2018-11-02T00:09:52.696Z,12.57
2018-11-02T00:10:25.738Z,12.48
2018-11-02T00:10:59.552Z,12.00
2018-11-02T00:11:32.601Z,11.10
2018-11-02T00:12:05.644Z,11.40
2018-11-02T00:12:38.926Z,11.98
2018-11-02T00:13:11.952Z,12.65
2018-11-02T00:13:44.993Z,11.55
2018-11-02T00:14:18.257Z,11.27
2018-11-02T00:14:51.345Z,11.82
2018-11-02T00:15:24.381Z,12.43
2018-11-02T00:15:57.465Z,12.30
2018-11-02T00:16:30.515Z,12.40
2018-11-02T00:17:03.553Z,10.73
2018-11-02T00:17:36.601Z,11.75
2018-11-02T00:18:10.864Z,11.18
2018-11-02T00:18:43.904Z,12.57
2018-11-02T00:19:17.172Z,11.65
2018-11-02T00:19:50.223Z,10.40
2018-11-02T00:20:23.263Z,10.90
2018-11-02T00:20:56.535Z,11.20
2018-11-02T00:21:29.576Z,11.90
2018-11-02T00:22:02.628Z,10.52
2018-11-02T00:22:35.689Z,11.43
2018-11-02T00:23:08.928Z,11.52
2018-11-02T00:23:43.408Z,10.85
2018-11-02T00:24:16.453Z,10.63
2018-11-02T00:24:49.482Z,10.93
2018-11-02T00:25:22.520Z,11.60
2018-11-02T00:25:55.776Z,11.98
2018-11-02T00:26:28.816Z,11.18
2018-11-02T00:27:02.628Z,10.90
2018-11-02T00:27:36.686Z,10.40
2018-11-02T00:28:09.963Z,12.00
2018-11-02T00:28:43.871Z,12.23
2018-11-02T00:29:16.921Z,10.88
2018-11-02T00:29:49.950Z,11.30
2018-11-02T00:30:23.005Z,11.55
2018-11-02T00:30:56.808Z,9.82
2018-11-02T00:31:31.423Z,11.52
2018-11-02T00:32:04.576Z,11.32
2018-11-02T00:32:38.480Z,10.85
2018-11-02T00:33:12.289Z,10.77
2018-11-02T00:33:45.329Z,11.90
2018-11-02T00:34:18.579Z,11.43
2018-11-02T00:34:51.608Z,9.90
2018-11-02T00:35:25.417Z,11.15
2018-11-02T00:35:58.470Z,11.80
2018-11-02T00:36:32.282Z,10.43
2018-11-02T00:37:05.544Z,11.15
2018-11-02T00:37:38.604Z,11.80
2018-11-02T00:38:11.664Z,12.37
2018-11-02T00:38:44.717Z,12.23
2018-11-02T00:39:17.766Z,11.10
2018-11-02T00:39:50.798Z,13.10
2018-11-02T00:40:24.026Z,12.55
2018-11-02T00:40:57.055Z,11.82
2018-11-02T00:41:30.110Z,11.85
2018-11-02T00:42:03.152Z,11.25
2018-11-02T00:42:36.392Z,11.32
2018-11-02T00:43:10.210Z,11.48
2018-11-02T00:43:43.261Z,12.93
2018-11-02T00:44:16.308Z,12.20
2018-11-02T00:44:49.361Z,11.68
2018-11-02T00:45:22.404Z,11.98
2018-11-02T00:45:55.457Z,12.32
2018-11-02T00:46:28.476Z,11.90
2018-11-02T00:47:01.532Z,12.10
2018-11-02T00:47:35.392Z,11.57
2018-11-02T00:48:08.453Z,11.05
2018-11-02T00:48:41.511Z,12.27
2018-11-02T00:49:14.755Z,11.07
2018-11-02T00:49:47.837Z,11.43
2018-11-02T00:50:21.095Z,11.63
2018-11-02T00:50:55.133Z,11.52
2018-11-02T00:51:29.168Z,11.68
2018-11-02T00:52:02.276Z,11.57
2018-11-02T00:52:35.344Z,10.65
2018-11-02T00:53:09.392Z,11.43
2018-11-02T00:53:42.674Z,12.60
2018-11-02T00:54:15.712Z,10.95
2018-11-02T00:54:48.732Z,10.60
2018-11-02T00:55:21.788Z,10.95
2018-11-02T00:55:55.067Z,10.82
2018-11-02T00:56:28.335Z,10.35
2018-11-02T00:57:01.462Z,10.15
2018-11-02T00:57:34.524Z,9.82
2018-11-02T00:58:07.592Z,11.02
2018-11-02T00:58:40.659Z,10.95
2018-11-02T00:59:13.689Z,11.70
2018-11-02T00:59:46.741Z,11.85
2018-11-02T01:00:20.000Z,11.68
2018-11-02T01:00:53.064Z,12.15
2018-11-02T01:01:27.172Z,9.77
2018-11-02T01:02:00.252Z,10.82
2018-11-02T01:02:33.333Z,11.65
2018-11-02T01:03:07.548Z,10.05
2018-11-02T01:03:40.492Z,10.80
2018-11-02T01:04:13.537Z,11.52
2018-11-02T01:04:46.577Z,11.15
2018-11-02T01:05:20.384Z,11.45
2018-11-02T01:05:54.199Z,11.68
2018-11-02T01:06:27.236Z,11.52
2018-11-02T01:07:00.261Z,11.38
2018-11-02T01:07:33.529Z,12.13
2018-11-02T01:08:06.639Z,12.20
2018-11-02T01:08:41.065Z,11.98
2018-11-02T01:09:14.101Z,12.13
2018-11-02T01:09:47.139Z,12.23
2018-11-02T01:10:20.188Z,10.80
2018-11-02T01:10:53.439Z,11.88
2018-11-02T01:11:26.487Z,11.70
2018-11-02T01:11:59.516Z,11.02
2018-11-02T01:12:33.359Z,10.40
2018-11-02T01:13:06.428Z,10.45
2018-11-02T01:13:39.502Z,10.68
2018-11-02T01:14:13.447Z,10.48
2018-11-02T01:14:46.500Z,10.27
2018-11-02T01:15:19.567Z,10.68
2018-11-02T01:15:52.828Z,10.30
2018-11-02T01:16:26.607Z,10.63
2018-11-02T01:16:59.628Z,10.27
2018-11-02T01:17:32.667Z,11.50
2018-11-02T01:18:05.756Z,10.52
2018-11-02T01:18:38.800Z,9.88
2018-11-02T01:19:12.617Z,9.95
2018-11-02T01:19:45.632Z,10.73
2018-11-02T01:20:19.285Z,8.98
2018-11-02T01:20:52.332Z,10.40
2018-11-02T01:21:25.972Z,10.63
2018-11-02T01:21:59.022Z,10.30
2018-11-02T01:22:32.070Z,9.70
2018-11-02T01:23:05.124Z,9.50
2018-11-02T01:23:38.418Z,9.43
2018-11-02T01:24:12.287Z,11.00
2018-11-02T01:24:45.328Z,10.60
2018-11-02T01:25:18.576Z,10.35
2018-11-02T01:25:51.621Z,10.52
2018-11-02T01:26:24.650Z,11.50
2018-11-02T01:26:57.688Z,10.93
2018-11-02T01:27:31.304Z,10.63
2018-11-02T01:28:04.355Z,10.32
2018-11-02T01:28:38.123Z,10.02
2018-11-02T01:29:11.154Z,10.00
2018-11-02T01:29:44.191Z,11.52
2018-11-02T01:30:17.462Z,10.80
2018-11-02T01:30:50.520Z,10.18
2018-11-02T01:31:23.563Z,10.55
2018-11-02T01:31:56.616Z,10.45
2018-11-02T01:32:29.862Z,10.27
2018-11-02T01:33:03.109Z,10.20
2018-11-02T01:33:37.260Z,10.20
2018-11-02T01:34:10.289Z,10.68
2018-11-02T01:34:43.375Z,9.88
2018-11-02T01:35:16.691Z,10.82
2018-11-02T01:35:50.717Z,10.38
2018-11-02T01:36:23.764Z,11.43
2018-11-02T01:36:56.814Z,9.90
2018-11-02T01:37:29.837Z,9.43
2018-11-02T01:38:03.561Z,9.45
2018-11-02T01:38:36.832Z,9.73
2018-11-02T01:39:10.088Z,8.63
2018-11-02T01:39:43.355Z,10.13
2018-11-02T01:40:16.630Z,9.88
2018-11-02T01:40:49.912Z,10.18
2018-11-02T01:41:23.228Z,9.10
2018-11-02T01:41:56.259Z,9.43
2018-11-02T01:42:29.302Z,10.48
2018-11-02T01:43:02.564Z,9.82
2018-11-02T01:43:35.616Z,10.02
2018-11-02T01:44:08.880Z,9.63
2018-11-02T01:44:42.111Z,9.45
2018-11-02T01:45:15.433Z,9.77
2018-11-02T01:45:49.208Z,9.98
2018-11-02T01:46:22.259Z,8.80
2018-11-02T01:46:55.524Z,9.73
2018-11-02T01:47:28.564Z,9.13
2018-11-02T01:48:01.844Z,9.43
2018-11-02T01:48:35.095Z,9.68
2018-11-02T01:49:08.355Z,9.48
2018-11-02T01:49:41.623Z,9.73
2018-11-02T01:50:14.663Z,9.70
2018-11-02T01:50:47.922Z,9.73
2018-11-02T01:51:20.959Z,9.23
2018-11-02T01:51:54.004Z,9.18
2018-11-02T01:52:27.863Z,9.48
2018-11-02T01:53:01.174Z,9.45
2018-11-02T01:53:34.208Z,8.20
2018-11-02T01:54:07.233Z,9.35
2018-11-02T01:54:40.477Z,9.40
2018-11-02T01:55:13.737Z,9.63
2018-11-02T01:55:47.953Z,10.13
2018-11-02T01:56:21.048Z,9.50
2018-11-02T01:56:54.351Z,8.85
2018-11-02T01:57:27.420Z,8.75
2018-11-02T01:58:00.645Z,8.93
2018-11-02T01:58:35.029Z,8.77
2018-11-02T01:59:08.060Z,8.65
2018-11-02T01:59:41.123Z,10.02
2018-11-02T02:00:15.309Z,8.30
2018-11-02T02:00:48.575Z,8.70
2018-11-02T02:01:21.833Z,9.25
2018-11-02T02:01:54.877Z,9.40
2018-11-02T02:02:28.148Z,9.45
2018-11-02T02:03:01.247Z,8.90
2018-11-02T02:03:34.291Z,9.65
2018-11-02T02:04:07.318Z,9.85
2018-11-02T02:04:40.568Z,9.10
2018-11-02T02:05:13.816Z,8.95
2018-11-02T02:05:47.114Z,9.52
2018-11-02T02:06:20.157Z,9.55
2018-11-02T02:06:53.672Z,9.07
2018-11-02T02:07:27.197Z,9.40
2018-11-02T02:08:00.408Z,9.38
2018-11-02T02:08:33.680Z,8.27
2018-11-02T02:09:06.721Z,8.65
2018-11-02T02:09:39.959Z,9.27
2018-11-02T02:10:13.572Z,10.07
2018-11-02T02:10:47.560Z,9.68
2018-11-02T02:11:20.604Z,10.07
2018-11-02T02:11:53.703Z,10.07
2018-11-02T02:12:26.981Z,9.23
2018-11-02T02:13:00.104Z,9.40
2018-11-02T02:13:33.304Z,9.07
2018-11-02T02:14:06.618Z,9.10
2018-11-02T02:14:39.646Z,9.27
2018-11-02T02:15:13.576Z,9.30
2018-11-02T02:15:48.387Z,9.48
2018-11-02T02:16:21.412Z,8.65
2018-11-02T02:16:55.129Z,8.23
2018-11-02T02:17:28.374Z,8.98
2018-11-02T02:18:01.653Z,9.13
2018-11-02T02:18:34.676Z,8.63
2018-11-02T02:19:07.963Z,8.30
2018-11-02T02:19:41.223Z,8.88
2018-11-02T02:20:14.269Z,9.27
2018-11-02T02:20:47.522Z,9.52
2018-11-02T02:21:21.593Z,8.18
2018-11-02T02:21:54.673Z,8.05
2018-11-02T02:22:27.920Z,8.70
2018-11-02T02:23:01.168Z,8.25
2018-11-02T02:23:34.224Z,8.70
2018-11-02T02:24:08.093Z,8.00
2018-11-02T02:24:41.336Z,8.10
2018-11-02T02:25:14.571Z,8.98
2018-11-02T02:25:47.609Z,8.35
2018-11-02T02:26:20.861Z,9.65
2018-11-02T02:26:54.123Z,8.93
2018-11-02T02:27:27.395Z,8.30
2018-11-02T02:28:00.615Z,7.90
2018-11-02T02:28:33.890Z,8.65
2018-11-02T02:29:06.948Z,8.13
2018-11-02T02:29:40.247Z,9.30
2018-11-02T02:30:13.297Z,8.13
2018-11-02T02:30:46.573Z,7.90
2018-11-02T02:31:19.612Z,8.05
2018-11-02T02:31:52.640Z,8.40
2018-11-02T02:32:25.672Z,7.97
2018-11-02T02:32:58.908Z,8.35
2018-11-02T02:33:31.947Z,8.10
2018-11-02T02:34:05.464Z,7.97
2018-11-02T02:34:38.755Z,7.60
2018-11-02T02:35:12.017Z,8.52
2018-11-02T02:35:45.350Z,7.87
2018-11-02T02:36:18.378Z,7.78
2018-11-02T02:36:51.617Z,8.02
2018-11-02T02:37:24.663Z,8.70
2018-11-02T02:37:57.917Z,7.90
2018-11-02T02:38:30.950Z,7.10
2018-11-02T02:39:04.772Z,7.70
2018-11-02T02:39:38.035Z,8.18
2018-11-02T02:40:12.066Z,7.72
2018-11-02T02:40:45.094Z,8.40
2018-11-02T02:41:18.355Z,8.05
2018-11-02T02:41:52.148Z,8.10
2018-11-02T02:42:25.942Z,7.82
2018-11-02T02:42:59.966Z,8.10
2018-11-02T02:43:33.474Z,8.05
2018-11-02T02:44:06.758Z,7.68
2018-11-02T02:44:39.820Z,8.25
2018-11-02T02:45:13.055Z,7.65
2018-11-02T02:45:46.873Z,8.65
2018-11-02T02:46:20.354Z,9.23
2018-11-02T02:46:53.372Z,7.62
2018-11-02T02:47:26.736Z,8.50
2018-11-02T02:48:00.030Z,7.95
2018-11-02T02:48:33.264Z,8.35
2018-11-02T02:49:06.510Z,8.32
2018-11-02T02:49:39.548Z,8.15
2018-11-02T02:50:13.448Z,6.75
2018-11-02T02:50:47.204Z,7.93
2018-11-02T02:51:20.232Z,8.77
2018-11-02T02:51:53.281Z,7.60
2018-11-02T02:52:26.313Z,7.53
2018-11-02T02:52:59.833Z,7.70
2018-11-02T02:53:33.922Z,8.10
2018-11-02T02:54:07.893Z,8.05
2018-11-02T02:54:41.941Z,8.07
2018-11-02T02:55:15.056Z,8.15
2018-11-02T02:55:48.176Z,8.25
2018-11-02T02:56:21.895Z,8.02
2018-11-02T02:56:55.372Z,7.90
2018-11-02T02:57:28.662Z,7.82
2018-11-02T02:58:02.083Z,8.38
2018-11-02T02:58:35.176Z,7.90
2018-11-02T02:59:08.241Z,7.35
2018-11-02T02:59:41.308Z,8.10
2018-11-02T03:00:15.280Z,7.62
2018-11-02T03:00:48.544Z,8.20
2018-11-02T03:01:21.899Z,7.93
2018-11-02T03:01:54.978Z,6.93
2018-11-02T03:02:28.992Z,7.82
2018-11-02T03:03:02.278Z,6.53
2018-11-02T03:03:35.402Z,7.45
2018-11-02T03:04:08.515Z,7.72
2018-11-02T03:04:42.396Z,7.57
2018-11-02T03:05:15.463Z,6.78
2018-11-02T03:05:49.340Z,6.80
2018-11-02T03:06:22.482Z,7.00
2018-11-02T03:06:55.537Z,7.28
2018-11-02T03:07:28.633Z,6.78
2018-11-02T03:08:01.702Z,7.30
2018-11-02T03:08:35.721Z,7.18
2018-11-02T03:09:08.820Z,6.78
2018-11-02T03:09:42.183Z,6.57
2018-11-02T03:10:15.285Z,7.12
2018-11-02T03:10:49.476Z,6.78
2018-11-02T03:11:22.291Z,7.18
2018-11-02T03:11:55.890Z,7.22
2018-11-02T03:12:29.930Z,6.68
2018-11-02T03:13:03.064Z,7.05
2018-11-02T03:13:36.584Z,7.70
2018-11-02T03:14:09.764Z,6.47
2018-11-02T03:14:43.359Z,7.57
2018-11-02T03:15:16.473Z,6.97
2018-11-02T03:15:49.595Z,7.45
2018-11-02T03:16:23.599Z,7.28
2018-11-02T03:16:56.653Z,6.93
2018-11-02T03:17:29.806Z,7.55
2018-11-02T03:18:02.961Z,7.18
2018-11-02T03:18:36.906Z,6.22
2018-11-02T03:19:10.443Z,6.75
2018-11-02T03:19:43.523Z,5.97
2018-11-02T03:20:16.631Z,6.85
2018-11-02T03:20:49.735Z,6.85
2018-11-02T03:21:22.876Z,7.47
2018-11-02T03:21:55.996Z,6.68
2018-11-02T03:22:29.170Z,7.32
2018-11-02T03:23:02.181Z,6.53
2018-11-02T03:23:36.044Z,6.95
2018-11-02T03:24:09.744Z,6.87
2018-11-02T03:24:42.884Z,6.35
2018-11-02T03:25:15.987Z,6.05
2018-11-02T03:25:49.023Z,6.55
2018-11-02T03:26:22.099Z,6.00
2018-11-02T03:26:55.199Z,6.78
2018-11-02T03:27:28.477Z,6.62
2018-11-02T03:28:01.573Z,7.20
2018-11-02T03:28:34.645Z,7.07
2018-11-02T03:29:08.032Z,6.62
2018-11-02T03:29:41.544Z,6.72
2018-11-02T03:30:14.588Z,6.47
2018-11-02T03:30:49.292Z,6.50
2018-11-02T03:31:22.408Z,6.00
2018-11-02T03:31:55.518Z,5.97
2018-11-02T03:32:28.576Z,6.32
2018-11-02T03:33:01.688Z,6.10
2018-11-02T03:33:34.804Z,6.20
2018-11-02T03:34:07.815Z,5.62
2018-11-02T03:34:41.283Z,6.72
2018-11-02T03:35:14.324Z,6.78
2018-11-02T03:35:47.408Z,5.85
2018-11-02T03:36:20.531Z,5.57
2018-11-02T03:36:53.572Z,5.75
2018-11-02T03:37:26.647Z,6.12
2018-11-02T03:37:59.705Z,6.22
2018-11-02T03:38:32.802Z,6.30
2018-11-02T03:39:05.866Z,6.12
2018-11-02T03:39:38.971Z,6.12
2018-11-02T03:40:12.850Z,6.28
2018-11-02T03:40:46.836Z,6.00
2018-11-02T03:41:19.904Z,6.03
2018-11-02T03:41:52.958Z,5.72
2018-11-02T03:42:26.035Z,5.65
2018-11-02T03:42:59.093Z,5.10
2018-11-02T03:43:32.139Z,5.75
2018-11-02T03:44:05.211Z,5.80
2018-11-02T03:44:38.295Z,5.82
2018-11-02T03:45:11.428Z,6.32
2018-11-02T03:45:44.585Z,5.50
2018-11-02T03:46:17.611Z,6.25
2018-11-02T03:46:50.674Z,5.18
2018-11-02T03:47:23.723Z,5.12
2018-11-02T03:47:58.546Z,5.32
2018-11-02T03:48:31.628Z,5.43
2018-11-02T03:49:04.900Z,5.62
2018-11-02T03:49:39.407Z,5.55
2018-11-02T03:50:13.219Z,4.65
2018-11-02T03:50:47.250Z,4.90
2018-11-02T03:51:20.324Z,4.87
2018-11-02T03:51:53.380Z,5.45
2018-11-02T03:52:26.410Z,5.20
2018-11-02T03:53:00.210Z,5.45
2018-11-02T03:53:33.587Z,5.55
2018-11-02T03:54:06.606Z,5.28
2018-11-02T03:54:39.652Z,5.72
2018-11-02T03:55:13.465Z,4.90
2018-11-02T03:55:46.517Z,5.25
2018-11-02T03:56:20.321Z,5.43
2018-11-02T03:56:53.624Z,5.12
2018-11-02T03:57:27.278Z,5.47
2018-11-02T03:58:00.331Z,5.12
2018-11-02T03:58:33.357Z,5.80
2018-11-02T03:59:06.399Z,5.32
2018-11-02T03:59:40.177Z,5.35
2018-11-02T04:00:14.005Z,5.50
2018-11-02T04:00:47.053Z,5.25
2018-11-02T04:01:20.096Z,5.53
2018-11-02T04:01:53.145Z,4.75
2018-11-02T04:02:26.193Z,4.82
2018-11-02T04:02:59.226Z,4.87
2018-11-02T04:03:32.281Z,5.82
2018-11-02T04:04:05.334Z,5.78
2018-11-02T04:04:39.155Z,5.90
2018-11-02T04:05:12.203Z,5.12
2018-11-02T04:05:45.258Z,5.30
2018-11-02T04:06:18.298Z,5.30
2018-11-02T04:06:51.319Z,4.90
2018-11-02T04:07:24.353Z,4.50
2018-11-02T04:07:58.163Z,4.62
2018-11-02T04:08:31.215Z,5.22
2018-11-02T04:09:04.264Z,4.80
2018-11-02T04:09:37.341Z,5.07
2018-11-02T04:10:11.089Z,5.18
2018-11-02T04:10:44.125Z,5.18
2018-11-02T04:11:17.148Z,5.12
2018-11-02T04:11:50.177Z,5.30
2018-11-02T04:12:23.207Z,4.78
2018-11-02T04:12:56.651Z,4.65
2018-11-02T04:13:30.435Z,4.80
2018-11-02T04:14:03.476Z,4.57
2018-11-02T04:14:36.499Z,5.12
2018-11-02T04:15:10.318Z,4.95
2018-11-02T04:15:43.339Z,5.35
2018-11-02T04:16:16.360Z,5.22
2018-11-02T04:16:49.404Z,5.70
2018-11-02T04:17:23.218Z,5.12
2018-11-02T04:17:56.240Z,5.57
2018-11-02T04:18:29.264Z,5.10
2018-11-02T04:19:02.301Z,5.60
2018-11-02T04:19:35.344Z,5.50
2018-11-02T04:20:08.376Z,5.10
2018-11-02T04:20:42.419Z,5.37
2018-11-02T04:21:15.459Z,5.05
2018-11-02T04:21:48.497Z,5.43
2018-11-02T04:22:21.549Z,5.28
2018-11-02T04:22:54.580Z,5.43
2018-11-02T04:23:27.604Z,5.62
2018-11-02T04:24:00.638Z,5.65
2018-11-02T04:24:33.683Z,5.87
2018-11-02T04:25:06.713Z,5.68
2018-11-02T04:25:39.755Z,6.30
2018-11-02T04:26:12.804Z,6.32
2018-11-02T04:26:45.858Z,5.60
2018-11-02T04:27:19.643Z,5.68
2018-11-02T04:27:52.665Z,5.43
2018-11-02T04:28:25.701Z,6.10
2018-11-02T04:28:58.760Z,6.05
2018-11-02T04:29:32.428Z,6.03
2018-11-02T04:30:06.534Z,6.03
2018-11-02T04:30:39.613Z,5.22
2018-11-02T04:31:12.606Z,5.70
2018-11-02T04:31:45.638Z,5.47
2018-11-02T04:32:18.684Z,5.60
2018-11-02T04:32:51.702Z,6.03
2018-11-02T04:33:24.707Z,6.65
2018-11-02T04:33:57.727Z,6.20
2018-11-02T04:34:30.760Z,5.85
2018-11-02T04:35:03.793Z,6.55
2018-11-02T04:35:36.854Z,6.40
2018-11-02T04:36:09.920Z,6.78
2018-11-02T04:36:42.916Z,5.62
2018-11-02T04:37:15.928Z,6.25
2018-11-02T04:37:50.301Z,5.82
2018-11-02T04:38:23.343Z,7.05
2018-11-02T04:38:57.134Z,6.68
2018-11-02T04:39:30.959Z,6.82
2018-11-02T04:40:03.975Z,7.22
2018-11-02T04:40:37.028Z,6.80
2018-11-02T04:41:10.060Z,7.25
2018-11-02T04:41:43.280Z,7.03
2018-11-02T04:42:16.399Z,6.53
2018-11-02T04:42:50.413Z,6.07
2018-11-02T04:43:23.501Z,6.10
2018-11-02T04:43:57.198Z,7.07
2018-11-02T04:44:30.220Z,6.22
2018-11-02T04:45:03.256Z,6.15
2018-11-02T04:45:36.286Z,6.18
2018-11-02T04:46:10.089Z,5.90
2018-11-02T04:46:43.893Z,7.15
2018-11-02T04:47:16.932Z,6.00
2018-11-02T04:47:49.976Z,7.22
2018-11-02T04:48:23.080Z,6.85
2018-11-02T04:48:56.120Z,7.55
2018-11-02T04:49:29.404Z,6.20
2018-11-02T04:50:02.457Z,6.40
2018-11-02T04:50:36.474Z,6.57
2018-11-02T04:51:09.583Z,6.45
2018-11-02T04:51:42.580Z,6.87
2018-11-02T04:52:15.628Z,7.30
2018-11-02T04:52:48.652Z,6.90
2018-11-02T04:53:21.694Z,6.20
2018-11-02T04:53:54.968Z,6.60
2018-11-02T04:54:28.219Z,6.03
2018-11-02T04:55:01.264Z,6.53
2018-11-02T04:55:35.055Z,6.47
2018-11-02T04:56:08.096Z,6.87
2018-11-02T04:56:42.362Z,7.82
2018-11-02T04:57:15.454Z,7.30
2018-11-02T04:57:48.510Z,7.20
2018-11-02T04:58:21.761Z,7.00
2018-11-02T04:58:54.808Z,8.13
2018-11-02T04:59:28.458Z,7.18
2018-11-02T05:00:02.531Z,6.85
2018-11-02T05:00:35.523Z,6.57
2018-11-02T05:01:08.792Z,6.82
2018-11-02T05:01:42.588Z,8.20
2018-11-02T05:02:15.622Z,7.10
2018-11-02T05:02:48.725Z,6.57
2018-11-02T05:03:21.817Z,7.47
2018-11-02T05:03:54.844Z,7.15
2018-11-02T05:04:27.875Z,6.12
2018-11-02T05:05:00.933Z,7.30
2018-11-02T05:05:33.985Z,7.68
2018-11-02T05:06:07.012Z,7.35
2018-11-02T05:06:40.045Z,7.18
2018-11-02T05:07:13.057Z,6.82
2018-11-02T05:07:46.087Z,7.37
2018-11-02T05:08:19.105Z,7.30
2018-11-02T05:08:52.147Z,6.70
2018-11-02T05:09:25.176Z,6.85
2018-11-02T05:09:58.257Z,6.85
2018-11-02T05:10:31.239Z,6.90
2018-11-02T05:11:05.084Z,6.82
2018-11-02T05:11:38.063Z,7.28
2018-11-02T05:12:11.114Z,6.72
2018-11-02T05:12:44.139Z,6.55
2018-11-02T05:13:17.165Z,7.45
2018-11-02T05:13:50.204Z,6.87
2018-11-02T05:14:23.240Z,6.22
2018-11-02T05:14:56.264Z,6.18
2018-11-02T05:15:30.055Z,7.65
2018-11-02T05:16:03.111Z,7.00
2018-11-02T05:16:36.148Z,7.30
2018-11-02T05:17:09.179Z,7.10
2018-11-02T05:17:42.243Z,6.50
2018-11-02T05:18:16.284Z,6.50
2018-11-02T05:18:49.325Z,6.60
2018-11-02T05:19:22.960Z,6.43
2018-11-02T05:19:56.018Z,7.50
2018-11-02T05:20:29.084Z,7.12
2018-11-02T05:21:02.189Z,6.70
2018-11-02T05:21:35.189Z,6.78
2018-11-02T05:22:08.225Z,6.47
2018-11-02T05:22:41.252Z,6.75
2018-11-02T05:23:14.488Z,7.18
2018-11-02T05:23:47.696Z,6.53
2018-11-02T05:24:20.739Z,5.75
2018-11-02T05:24:53.777Z,7.22
2018-11-02T05:25:26.800Z,6.35
2018-11-02T05:25:59.844Z,6.82
2018-11-02T05:26:32.875Z,6.90
2018-11-02T05:27:06.693Z,6.20
2018-11-02T05:27:39.720Z,6.60
2018-11-02T05:28:13.534Z,8.35
2018-11-02T05:28:46.555Z,6.80
2018-11-02T05:29:19.565Z,6.55
2018-11-02T05:29:52.588Z,7.00
2018-11-02T05:30:25.643Z,7.20
2018-11-02T05:30:59.470Z,8.73
2018-11-02T05:31:32.487Z,6.93
2018-11-02T05:32:05.521Z,7.53
2018-11-02T05:32:38.825Z,9.50
2018-11-02T05:33:11.844Z,8.15
2018-11-02T05:33:44.876Z,7.70
2018-11-02T05:34:17.913Z,7.10
2018-11-02T05:34:51.148Z,7.70
2018-11-02T05:35:24.176Z,6.85
2018-11-02T05:35:57.421Z,5.97
2018-11-02T05:36:31.257Z,7.50
2018-11-02T05:37:04.315Z,7.28
2018-11-02T05:37:37.574Z,7.03
2018-11-02T05:38:11.355Z,6.70
2018-11-02T05:38:45.397Z,6.90
2018-11-02T05:39:18.714Z,6.75
2018-11-02T05:39:51.675Z,5.80
2018-11-02T05:40:24.705Z,7.57
2018-11-02T05:40:58.867Z,6.82
2018-11-02T05:41:31.903Z,6.53
2018-11-02T05:42:04.935Z,6.55
2018-11-02T05:42:38.000Z,6.60
2018-11-02T05:43:11.019Z,7.05
2018-11-02T05:43:44.105Z,7.18
2018-11-02T05:44:18.707Z,6.50
2018-11-02T05:44:51.887Z,6.45
2018-11-02T05:45:25.326Z,6.37
2018-11-02T05:45:59.109Z,6.12
2018-11-02T05:46:32.349Z,6.28
2018-11-02T05:47:06.778Z,6.37
2018-11-02T05:47:39.756Z,6.20
2018-11-02T05:48:12.790Z,6.45
2018-11-02T05:48:45.843Z,5.47
2018-11-02T05:49:18.872Z,6.40
2018-11-02T05:49:51.964Z,6.93
2018-11-02T05:50:24.991Z,6.15
2018-11-02T05:50:58.964Z,6.12
2018-11-02T05:51:32.009Z,6.35
2018-11-02T05:52:05.082Z,6.80
2018-11-02T05:52:38.102Z,6.43
2018-11-02T05:53:11.135Z,6.55
2018-11-02T05:53:44.936Z,6.20
2018-11-02T05:54:18.065Z,6.20
2018-11-02T05:54:51.029Z,5.68
2018-11-02T05:55:24.052Z,6.70
2018-11-02T05:55:57.691Z,6.18
2018-11-02T05:56:30.725Z,6.07
2018-11-02T05:57:03.770Z,6.25
2018-11-02T05:57:36.819Z,6.53
2018-11-02T05:58:09.837Z,6.18
2018-11-02T05:58:43.993Z,4.95
2018-11-02T07:18:57.682Z,7.40
2018-11-02T07:27:34.197Z,6.37
2018-11-02T07:29:18.557Z,6.53
2018-11-02T07:50:17.419Z,7.20
